DW2114 Ashburn VA US current weather conditions

sailwx.info

Wind from 261 at 3 knots gusting 6

Air temperature 6.1° C
Dewpoint -2.3° C

Last reported at 2020-Jan-28 23:09 UTC.
Time now 2020-Jan-28 23:39 UTC

Location: N 39°03' W 077°03'.
View on Google Maps.

See reports from other nearby stations

  
Tides and Currents Weather Stations Pressure Air Temp Water Temp Dewpoint Dewpoint Depression Visibility Wind Speed Wind Dir Waves Ship Positions
date/time (UTC)wind fromknots sea level pressurealtimeterstation pressurevisibilityair tempwater tempwave heightnotes
2020-Jan-28 23:09 261 3 gusting 6 6.1
2020-Jan-28 23:04 244 2 gusting 6 6.1
2020-Jan-28 22:59 291 2 gusting 6 6.1
2020-Jan-28 22:54 227 1 gusting 7 6.1
2020-Jan-28 22:49 258 3 gusting 11 6.1
2020-Jan-28 22:44 225 2 gusting 6 6.1
2020-Jan-28 22:39 260 2 gusting 6 6.1
2020-Jan-28 22:34 236 3 gusting 8 6.1
2020-Jan-28 22:29 236 3 gusting 6 6.1
2020-Jan-28 22:24 235 5 gusting 8 6.1
2020-Jan-28 22:19 235 1 gusting 6 6.1
2020-Jan-28 22:14 228 2 gusting 4 6.1
2020-Jan-28 22:09 247 3 gusting 5 6.1
2020-Jan-28 22:04 242 2 gusting 5 6.7
2020-Jan-28 21:59 259 2 gusting 6 6.7
2020-Jan-28 21:54 241 4 gusting 8 6.7
2020-Jan-28 21:49 250 2 gusting 5 6.7
2020-Jan-28 21:44 261 2 gusting 5 6.7
2020-Jan-28 21:39 251 5 gusting 10 6.7
2020-Jan-28 21:34 249 2 gusting 6 6.7
2020-Jan-28 21:29 232 3 gusting 6 6.7
2020-Jan-28 21:24 263 2 gusting 6 6.7
2020-Jan-28 21:19 229 6 gusting 8 6.7
2020-Jan-28 21:14 229 5 gusting 7 6.7
2020-Jan-28 21:09 238 4 gusting 7 6.7
2020-Jan-28 21:04 233 4 gusting 8 6.7
2020-Jan-28 20:59 247 5 gusting 8 7.2
2020-Jan-28 20:54 265 4 gusting 6 7.2
2020-Jan-28 20:49 286 1 gusting 2 6.7
2020-Jan-28 20:44 237 0 gusting 4 6.7
2020-Jan-28 20:39 251 1 gusting 5 6.7
2020-Jan-28 20:34 200 2 gusting 6 6.7
2020-Jan-28 20:29 238 4 gusting 6 6.7
2020-Jan-28 20:24 254 5 gusting 11 6.7
2020-Jan-28 20:19 212 6 gusting 8 6.7
2020-Jan-28 20:14 187 4 gusting 13 6.7
2020-Jan-28 20:09 234 2 gusting 6 7.2
2020-Jan-28 20:04 259 2 gusting 7 7.2
2020-Jan-28 19:59 244 3 gusting 5 7.2
2020-Jan-28 19:54 261 3 gusting 8 7.2
2020-Jan-28 19:49 226 6 gusting 10 7.2
2020-Jan-28 19:44 268 2 gusting 6 7.2
2020-Jan-28 19:39 250 4 gusting 6 7.2
2020-Jan-28 19:34 247 2 gusting 8 7.2
2020-Jan-28 19:29 259 4 gusting 8 7.2
2020-Jan-28 19:24 252 2 gusting 6 6.7
2020-Jan-28 19:19 248 5 gusting 8 6.7
2020-Jan-28 19:14 258 5 gusting 7 6.7
2020-Jan-28 19:09 220 6 gusting 12 6.7
2020-Jan-28 19:04 231 4 gusting 6 6.7
2020-Jan-28 18:59 216 4 gusting 6 6.7
2020-Jan-28 18:54 264 4 gusting 10 6.7
2020-Jan-28 18:49 255 5 gusting 10 6.7
2020-Jan-28 18:44 260 4 gusting 8 6.7
2020-Jan-28 18:39 261 6 gusting 10 6.7
2020-Jan-28 18:34 214 3 gusting 6 6.7
2020-Jan-28 18:29 296 2 gusting 6 6.7
2020-Jan-28 18:24 227 4 gusting 8 6.7
2020-Jan-28 18:19 217 1 gusting 5 6.7
2020-Jan-28 18:14 231 2 gusting 8 6.7
2020-Jan-28 18:09 238 2 gusting 8 6.7
2020-Jan-28 18:04 209 4 gusting 7 6.7
2020-Jan-28 17:59 253 4 gusting 10 6.7
2020-Jan-28 17:54 254 4 gusting 10 6.7
2020-Jan-28 17:49 245 6 gusting 10 7.2
2020-Jan-28 17:44 167 4 gusting 7 7.2
2020-Jan-28 17:39 274 2 gusting 6 7.2
2020-Jan-28 17:34 252 6 gusting 11 7.2
2020-Jan-28 17:29 244 5 gusting 7 7.2
2020-Jan-28 17:24 247 2 gusting 10 7.2
2020-Jan-28 17:19 261 5 gusting 10 7.2
2020-Jan-28 17:14 217 6 gusting 11 7.2
2020-Jan-28 17:09 245 1 gusting 6 6.7
2020-Jan-28 17:04 271 1 gusting 7 6.7
2020-Jan-28 16:59 261 3 gusting 8 6.7
2020-Jan-28 16:54 241 1 gusting 5 6.7
2020-Jan-28 16:49 248 2 gusting 7 6.7
2020-Jan-28 16:44 236 2 gusting 6 6.7
2020-Jan-28 16:39 219 4 gusting 7 6.7
2020-Jan-28 16:34 257 3 gusting 11 6.7
2020-Jan-28 16:29 252 3 gusting 10 6.7
2020-Jan-28 16:24 262 1 gusting 10 6.7
2020-Jan-28 16:19 224 4 gusting 6 6.7
2020-Jan-28 16:14 322 2 gusting 7 6.7
2020-Jan-28 16:09 304 2 gusting 5 6.7
2020-Jan-28 16:04 280 4 gusting 6 6.1
2020-Jan-28 15:59 262 2 gusting 7 6.1
2020-Jan-28 15:54 236 5 gusting 7 6.1
2020-Jan-28 15:49 316 1 gusting 4 6.1
2020-Jan-28 15:44 237 4 gusting 10 6.1
2020-Jan-28 15:39 247 2 gusting 6 6.1
2020-Jan-28 15:34 321 2 gusting 11 6.1
2020-Jan-28 15:29 240 4 gusting 8 6.1
2020-Jan-28 15:24 248 5 gusting 11 6.1
2020-Jan-28 15:19 241 3 gusting 7 5.6
2020-Jan-28 15:14 237 5 gusting 10 5.6
2020-Jan-28 15:09 252 4 gusting 11 5.6
2020-Jan-28 15:04 193 1 gusting 5 5.6
2020-Jan-28 14:59 266 2 gusting 8 5.6
2020-Jan-28 14:54 213 2 gusting 6 5.6
2020-Jan-28 14:49 191 1 gusting 7 5.0
2020-Jan-28 14:44 228 6 gusting 10 5.6
2020-Jan-28 14:39 256 5 gusting 6 5.0
2020-Jan-28 14:34 240 4 gusting 8 5.0
2020-Jan-28 14:29 227 3 gusting 8 5.0
2020-Jan-28 14:24 258 3 gusting 8 5.0
2020-Jan-28 14:19 250 2 gusting 6 5.0
2020-Jan-28 14:14 262 4 gusting 18 5.0
2020-Jan-28 14:09 263 2 gusting 11 4.4
2020-Jan-28 14:04 219 4 gusting 6 4.4
2020-Jan-28 13:59 245 5 gusting 8 4.4
2020-Jan-28 13:54 269 4 gusting 7 4.4
2020-Jan-28 13:49 246 1 gusting 6 4.4
2020-Jan-28 13:44 233 2 gusting 8 4.4
2020-Jan-28 13:39 230 2 gusting 6 4.4
2020-Jan-28 13:34 239 3 gusting 5 3.9
2020-Jan-28 13:29 248 1 gusting 5 3.9
2020-Jan-28 13:24 248 2 gusting 5 3.9
2020-Jan-28 13:19 217 2 gusting 6 3.9
2020-Jan-28 13:14 256 3 gusting 6 3.9
2020-Jan-28 13:09 247 2 gusting 4 3.3
2020-Jan-28 13:04 244 2 gusting 4 3.3
2020-Jan-28 12:59 205 1 gusting 5 3.3
2020-Jan-28 12:54 230 2 gusting 6 2.8
2020-Jan-28 12:49 238 2 gusting 5 2.8
2020-Jan-28 12:44 247 2 gusting 4 2.8
2020-Jan-28 12:39 229 1 gusting 7 2.8
2020-Jan-28 12:34 218 0 gusting 4 2.8
2020-Jan-28 12:29 255 1 gusting 6 2.8
2020-Jan-28 12:24 236 2 gusting 4 3.3
2020-Jan-28 12:19 233 1 gusting 6 3.3
2020-Jan-28 12:14 223 2 gusting 5 3.3
2020-Jan-28 12:09 265 4 gusting 6 3.3
2020-Jan-28 12:04 249 2 gusting 6 3.3
2020-Jan-28 11:59 271 2 gusting 6 3.3
2020-Jan-28 11:54 262 3 gusting 6 3.3
2020-Jan-28 11:49 262 2 gusting 5 3.9
2020-Jan-28 11:44 263 3 gusting 6 3.9
2020-Jan-28 11:39 267 2 gusting 6 3.9
2020-Jan-28 11:34 254 2 gusting 4 3.9
2020-Jan-28 11:29 198 2 gusting 5 3.9
2020-Jan-28 11:24 218 1 gusting 6 3.9
2020-Jan-28 11:19 238 2 gusting 5 3.9
2020-Jan-28 11:14 243 1 gusting 6 3.9
2020-Jan-28 11:09 262 2 gusting 8 3.9
2020-Jan-28 11:04 208 2 gusting 6 3.9
2020-Jan-28 10:59 230 1 gusting 2 3.9
2020-Jan-28 10:54 270 4 gusting 6 3.9
2020-Jan-28 10:49 263 2 gusting 6 3.9
2020-Jan-28 10:44 217 3 gusting 7 3.9
2020-Jan-28 10:39 248 2 gusting 5 3.9
2020-Jan-28 10:34 244 1 gusting 5 3.9
2020-Jan-28 10:29 257 2 gusting 5 3.9
2020-Jan-28 10:24 283 2 gusting 6 3.9
2020-Jan-28 10:19 226 1 gusting 5 3.9
2020-Jan-28 10:14 239 1 gusting 6 3.9
2020-Jan-28 10:09 267 2 gusting 4 3.9
2020-Jan-28 10:04 271 0 gusting 4 3.9
2020-Jan-28 09:59 248 1 gusting 6 3.9
2020-Jan-28 09:54 231 2 gusting 6 3.9
2020-Jan-28 09:49 255 2 gusting 6 3.9
2020-Jan-28 09:44 233 2 gusting 8 3.9
2020-Jan-28 09:39 233 5 gusting 7 3.9
2020-Jan-28 09:34 251 1 gusting 6 3.9
2020-Jan-28 09:29 254 1 gusting 6 3.9
2020-Jan-28 09:24 222 4 gusting 10 3.9
2020-Jan-28 09:19 240 2 gusting 6 3.9
2020-Jan-28 09:14 255 1 gusting 5 3.9
2020-Jan-28 09:09 250 2 gusting 6 3.9
2020-Jan-28 09:04 236 2 gusting 4 3.9
2020-Jan-28 08:59 288 0 gusting 4 3.9
2020-Jan-28 08:54 225 2 gusting 5 3.9
2020-Jan-28 08:49 238 1 gusting 6 3.9
2020-Jan-28 08:44 250 1 gusting 4 3.9
2020-Jan-28 08:39 269 1 gusting 6 3.9
2020-Jan-28 08:34 257 2 gusting 5 3.9
2020-Jan-28 08:29 270 1 gusting 5 3.9
2020-Jan-28 08:24 254 1 gusting 6 3.9
2020-Jan-28 08:19 258 0 gusting 2 3.9
2020-Jan-28 08:14 180 1 gusting 4 3.9
2020-Jan-28 08:09 233 1 gusting 7 3.9
2020-Jan-28 08:04 278 2 gusting 7 3.9
2020-Jan-28 07:59 236 2 gusting 5 3.9
2020-Jan-28 07:54 292 2 gusting 6 3.9
2020-Jan-28 07:49 252 1 gusting 4 3.9
2020-Jan-28 07:44 248 1 gusting 6 3.9
2020-Jan-28 07:39 255 4 gusting 6 3.9
2020-Jan-28 07:34 254 3 gusting 6 3.9
2020-Jan-28 07:29 248 2 gusting 5 3.9
2020-Jan-28 07:24 269 2 gusting 4 3.9
2020-Jan-28 07:19 229 1 gusting 6 3.9
2020-Jan-28 07:14 242 2 gusting 5 4.4
2020-Jan-28 07:09 234 2 gusting 6 4.4
2020-Jan-28 07:04 219 2 gusting 6 4.4
2020-Jan-28 06:59 250 2 gusting 6 4.4
2020-Jan-28 06:54 234 4 gusting 6 4.4
2020-Jan-28 06:49 264 2 gusting 5 4.4
2020-Jan-28 06:44 239 0 gusting 5 4.4
2020-Jan-28 06:39 254 2 gusting 4 4.4
2020-Jan-28 06:34 242 2 gusting 8 4.4
2020-Jan-28 06:29 249 4 gusting 7 4.4
2020-Jan-28 06:24 251 1 gusting 5 4.4
2020-Jan-28 06:19 264 2 gusting 7 4.4
2020-Jan-28 06:14 254 3 gusting 6 4.4
2020-Jan-28 06:09 198 4 gusting 7 4.4
2020-Jan-28 06:04 243 1 gusting 6 4.4
2020-Jan-28 05:59 233 2 gusting 5 4.4
2020-Jan-28 05:54 270 4 gusting 6 4.4
2020-Jan-28 05:49 254 2 gusting 5 4.4
2020-Jan-28 05:44 249 2 gusting 6 4.4
2020-Jan-28 05:39 231 1 gusting 4 4.4
2020-Jan-28 05:34 254 1 gusting 6 4.4
2020-Jan-28 05:29 243 2 gusting 6 4.4
2020-Jan-28 05:24 247 2 gusting 4 4.4
2020-Jan-28 05:19 232 2 gusting 6 4.4
2020-Jan-28 05:14 261 2 gusting 4 4.4
2020-Jan-28 05:09 236 4 gusting 7 4.4
2020-Jan-28 05:04 254 1 gusting 5 4.4
2020-Jan-28 04:59 227 2 gusting 4 4.4
2020-Jan-28 04:54 270 0 gusting 2 4.4
2020-Jan-28 04:49 214 1 gusting 7 4.4
2020-Jan-28 04:44 242 4 gusting 6 4.4
2020-Jan-28 04:39 247 2 gusting 10 4.4
2020-Jan-28 04:34 258 3 gusting 6 4.4
2020-Jan-28 04:29 250 2 gusting 4 4.4
2020-Jan-28 04:24 265 1 gusting 4 4.4
2020-Jan-28 04:19 193 1 gusting 5 4.4
2020-Jan-28 04:14 269 2 gusting 5 4.4
2020-Jan-28 04:09 192 4 gusting 7 4.4
2020-Jan-28 04:04 199 1 gusting 2 4.4
2020-Jan-28 03:59 222 1 gusting 6 5.0
2020-Jan-28 03:54 257 2 gusting 6 5.0
2020-Jan-28 03:49 245 2 gusting 6 5.0
2020-Jan-28 03:44 241 5 gusting 7 5.0
2020-Jan-28 03:39 230 2 gusting 6 5.0
2020-Jan-28 03:34 247 2 gusting 7 5.0
2020-Jan-28 03:29 258 2 gusting 7 5.0
2020-Jan-28 03:24 266 3 gusting 6 5.0
2020-Jan-28 03:19 233 4 gusting 10 5.0
2020-Jan-28 03:14 242 4 gusting 7 5.0
2020-Jan-28 03:09 205 2 gusting 5 5.0
2020-Jan-28 03:04 264 5.0
2020-Jan-28 02:59 261 1 gusting 4 5.0
2020-Jan-28 02:54 262 2 gusting 4 5.0
2020-Jan-28 02:49 263 2 gusting 5 5.0
2020-Jan-28 02:44 247 3 gusting 4 5.0
2020-Jan-28 02:39 268 2 gusting 6 5.0
2020-Jan-28 02:34 265 2 gusting 6 5.0
2020-Jan-28 02:29 264 1 gusting 5 5.0
2020-Jan-28 02:24 251 0 gusting 2 5.0
2020-Jan-28 02:19 254 3 gusting 6 5.0
2020-Jan-28 02:14 250 2 gusting 6 5.0
2020-Jan-28 02:09 223 2 gusting 6 5.0
2020-Jan-28 02:04 218 4 gusting 10 5.0
2020-Jan-28 01:59 228 4 gusting 7 5.0
2020-Jan-28 01:54 260 5 gusting 11 5.0
2020-Jan-28 01:49 233 4 gusting 8 5.0
2020-Jan-28 01:44 234 2 gusting 5 5.0
2020-Jan-28 01:39 257 4 gusting 7 4.4
2020-Jan-28 01:34 225 1 gusting 2 4.4
2020-Jan-28 01:29 211 2 gusting 6 4.4
2020-Jan-28 01:24 240 4 gusting 7 5.0
2020-Jan-28 01:19 039 1 gusting 4 5.0
2020-Jan-28 01:14 229 4 gusting 7 5.0
2020-Jan-28 01:09 240 3 gusting 11 5.0
2020-Jan-28 01:04 298 2 gusting 7 5.0
2020-Jan-28 00:59 241 1 gusting 5 5.0
2020-Jan-28 00:54 237 0 gusting 4 5.6
2020-Jan-28 00:49 255 0 gusting 4 5.6
2020-Jan-28 00:44 274 1 gusting 6 5.6
2020-Jan-28 00:39 260 2 gusting 6 5.6
2020-Jan-28 00:34 257 2 gusting 20 5.6
2020-Jan-28 00:29 236 4 gusting 20 5.6
2020-Jan-28 00:24 262 1 gusting 6 5.6
2020-Jan-28 00:19 246 1 gusting 6 5.6
2020-Jan-28 00:14 277 2 gusting 5 5.6
2020-Jan-28 00:09 244 3 gusting 8 5.6
2020-Jan-28 00:04 214 5 gusting 11 6.1
2020-Jan-27 23:59 243 2 gusting 7 6.1
2020-Jan-27 23:54 235 0 gusting 2 6.1
2020-Jan-27 23:49 260 1 gusting 4 6.1
2020-Jan-27 23:44 229 2 gusting 6 6.1
2020-Jan-27 23:39 246 1 gusting 6 6.1
2020-Jan-27 23:34 263 1 gusting 6 6.1
2020-Jan-27 23:29 250 4 gusting 7 6.1
2020-Jan-27 23:24 243 1 gusting 7 6.1
2020-Jan-27 23:19 254 4 gusting 6 6.1
2020-Jan-27 23:14 252 0 gusting 2 6.7
2020-Jan-27 23:09 251 3 gusting 7 6.7
2020-Jan-27 23:04 270 2 gusting 6 6.7
2020-Jan-27 22:59 213 3 gusting 6 6.7
2020-Jan-27 22:54 260 1 gusting 4 6.7
2020-Jan-27 22:49 236 2 gusting 6 6.7
2020-Jan-27 22:44 235 2 gusting 8 6.7
2020-Jan-27 22:39 228 2 gusting 8 6.7
2020-Jan-27 22:34 253 3 gusting 5 6.7
2020-Jan-27 22:29 221 3 gusting 6 6.7
2020-Jan-27 22:24 241 2 gusting 6 6.7
2020-Jan-27 22:19 247 1 gusting 4 6.7
2020-Jan-27 22:14 226 2 gusting 4 6.7
2020-Jan-27 22:09 218 1 gusting 4 6.7
2020-Jan-27 22:04 231 2 gusting 5 7.2
2020-Jan-27 21:59 227 2 gusting 6 7.2
2020-Jan-27 21:54 216 3 gusting 6 7.2
2020-Jan-27 21:49 239 3 gusting 6 7.2
2020-Jan-27 21:44 254 5 gusting 7 7.2
2020-Jan-27 21:39 237 0 gusting 2 7.2
2020-Jan-27 21:34 237 3 gusting 6 7.2
2020-Jan-27 21:29 348 1 gusting 6 7.2
2020-Jan-27 21:24 270 2 gusting 6 7.2
2020-Jan-27 21:19 270 4 gusting 12 7.2
2020-Jan-27 21:14 115 1 gusting 6 7.2
2020-Jan-27 21:09 263 1 gusting 8 7.2
2020-Jan-27 21:04 257 5 gusting 8 7.2
2020-Jan-27 20:59 237 4 gusting 8 7.8
2020-Jan-27 20:54 238 6 gusting 11 7.8
2020-Jan-27 20:49 245 5 gusting 8 7.8
2020-Jan-27 20:44 222 3 gusting 8 7.8
2020-Jan-27 20:39 232 3 gusting 8 7.8
2020-Jan-27 20:34 302 2 gusting 8 7.8
2020-Jan-27 20:29 247 4 gusting 7 7.8
2020-Jan-27 20:24 213 6 gusting 8 7.8
2020-Jan-27 20:19 200 3 gusting 12 8.3
2020-Jan-27 20:14 246 5 gusting 8 8.3
2020-Jan-27 20:09 215 6 gusting 11 8.3
2020-Jan-27 20:04 239 6 gusting 17 8.3
2020-Jan-27 19:59 212 5 gusting 11 7.8
2020-Jan-27 19:54 228 4 gusting 7 7.8
2020-Jan-27 19:49 226 5 gusting 7 7.8
2020-Jan-27 19:44 214 6 gusting 10 7.8
2020-Jan-27 19:39 253 5 gusting 8 7.8
2020-Jan-27 19:34 204 2 gusting 7 8.3
2020-Jan-27 19:29 251 4 gusting 7 8.3
2020-Jan-27 19:24 194 5 gusting 10 8.3
2020-Jan-27 19:19 213 6 gusting 10 8.3
2020-Jan-27 19:14 212 2 gusting 6 8.3
2020-Jan-27 19:09 237 2 gusting 5 8.3
2020-Jan-27 19:04 211 4 gusting 8 8.3
2020-Jan-27 18:59 246 2 gusting 10 8.9
2020-Jan-27 18:54 235 4 gusting 10 8.9
2020-Jan-27 18:49 199 4 gusting 8 8.9
2020-Jan-27 18:44 230 7 gusting 12 8.9
2020-Jan-27 18:39 186 6 gusting 10 8.9
2020-Jan-27 18:34 199 3 gusting 5 8.3
2020-Jan-27 18:29 219 3 gusting 13 8.3
2020-Jan-27 18:24 231 4 gusting 7 8.3
2020-Jan-27 18:19 202 4 gusting 7 8.3
2020-Jan-27 18:14 216 5 gusting 7 8.3
2020-Jan-27 18:09 229 6 gusting 8 8.3
2020-Jan-27 18:04 241 5 gusting 8 8.3
2020-Jan-27 17:59 208 6 gusting 13 8.9
2020-Jan-27 17:54 206 5 gusting 10 8.9
2020-Jan-27 17:49 247 5 gusting 11 9.4
2020-Jan-27 17:44 214 5 gusting 11 9.4
2020-Jan-27 17:39 230 8 gusting 12 8.9
2020-Jan-27 17:34 237 6 gusting 10 8.9
2020-Jan-27 17:29 214 5 gusting 11 8.9
2020-Jan-27 17:24 223 6 gusting 11 8.9
2020-Jan-27 17:19 247 6 gusting 12 8.9
2020-Jan-27 17:14 236 5 gusting 12 8.9
2020-Jan-27 17:09 258 3 gusting 11 8.9
2020-Jan-27 17:04 191 7 gusting 11 8.9
2020-Jan-27 16:59 221 5 gusting 8 8.3
2020-Jan-27 16:54 242 4 gusting 10 8.3
2020-Jan-27 16:49 230 5 gusting 12 8.3
2020-Jan-27 16:44 267 4 gusting 7 8.3
2020-Jan-27 16:39 240 2 gusting 6 8.3
2020-Jan-27 16:34 222 3 gusting 6 8.3
2020-Jan-27 16:29 226 1 gusting 5 8.3
2020-Jan-27 16:24 272 4 gusting 7 8.3
2020-Jan-27 16:19 237 4 gusting 8 8.3
2020-Jan-27 16:14 254 5 gusting 10 8.3
2020-Jan-27 16:09 247 4 gusting 6 8.3
2020-Jan-27 16:04 219 2 gusting 8 8.3
2020-Jan-27 15:59 208 3 gusting 8 8.3
2020-Jan-27 15:54 195 2 gusting 5 8.3
2020-Jan-27 15:49 145 0 gusting 4 8.3
2020-Jan-27 15:44 208 2 gusting 8 7.8
2020-Jan-27 15:39 203 4 gusting 6 7.8
2020-Jan-27 15:34 218 3 gusting 6 7.2
2020-Jan-27 15:29 223 4 gusting 5 7.2
2020-Jan-27 15:24 212 2 gusting 7 6.7
2020-Jan-27 15:19 190 3 gusting 7 7.2
2020-Jan-27 15:14 204 3 gusting 10 6.7
2020-Jan-27 15:09 208 4 gusting 8 7.2
2020-Jan-27 15:04 213 2 gusting 6 7.2
2020-Jan-27 14:59 225 3 gusting 6 6.7
2020-Jan-27 14:54 199 1 gusting 5 6.7
2020-Jan-27 14:49 206 3 gusting 5 6.7
2020-Jan-27 14:44 211 0 gusting 5 6.7
2020-Jan-27 14:39 216 1 gusting 4 6.7
2020-Jan-27 14:34 200 0 gusting 4 6.1
2020-Jan-27 14:29 186 0 gusting 4 6.1
2020-Jan-27 14:24 204 1 gusting 4 6.1
2020-Jan-27 14:19 196 1 gusting 5 5.6
2020-Jan-27 14:14 196 1 gusting 2 5.6
2020-Jan-27 14:09 220 5.0
2020-Jan-27 14:04 181 5.0
2020-Jan-27 13:59 170 5.0
2020-Jan-27 13:54 212 0 gusting 1 4.4
2020-Jan-27 13:49 195 4.4
2020-Jan-27 13:44 189 0 gusting 1 4.4
2020-Jan-27 13:39 117 0 gusting 2 4.4
2020-Jan-27 13:34 197 0 gusting 1 3.9
2020-Jan-27 13:29 163 3.9
2020-Jan-27 13:24 158 0 gusting 2 3.9
2020-Jan-27 13:19 205 1 gusting 2 3.3
2020-Jan-27 13:14 162 3.3
2020-Jan-27 13:09 175 3.3
2020-Jan-27 13:04 178 3.3
2020-Jan-27 12:59 216 0 gusting 2 2.8
2020-Jan-27 12:54 180 0 gusting 1 2.8
2020-Jan-27 12:49 205 0 gusting 6 2.8
2020-Jan-27 12:44 192 1 gusting 5 2.8
2020-Jan-27 12:39 223 0 gusting 5 2.8
2020-Jan-27 12:34 189 0 gusting 1 2.8
2020-Jan-27 12:29 181 0 gusting 1 2.8
2020-Jan-27 12:24 174 0 gusting 1 2.2
2020-Jan-27 12:19 202 0 gusting 1 2.2
2020-Jan-27 12:14 200 2.2
2020-Jan-27 12:09 196 2.2
2020-Jan-27 12:04 190 0 gusting 4 2.2
2020-Jan-27 11:59 231 0 gusting 2 2.2
2020-Jan-27 11:54 225 1.7
2020-Jan-27 11:49 182 1.7
2020-Jan-27 11:44 159 1.7
2020-Jan-27 11:39 202 1.7
2020-Jan-27 11:34 129 1.1
2020-Jan-27 11:29 112 1.1
2020-Jan-27 11:24 158 1.1
2020-Jan-27 11:19 202 1 gusting 4 1.1
2020-Jan-27 11:14 228 1 gusting 6 1.1
2020-Jan-27 11:09 229 0 gusting 2 0.6
2020-Jan-27 11:04 225 0.6
2020-Jan-27 10:59 182 0.6
2020-Jan-27 10:54 165 0.6
2020-Jan-27 10:49 158 0.6
2020-Jan-27 10:44 158 0.6
2020-Jan-27 10:39 158 0.6
2020-Jan-27 10:34 158 0.6
2020-Jan-27 10:29 158 1.1
2020-Jan-27 10:24 225 1.1
2020-Jan-27 10:19 225 1.1
2020-Jan-27 10:14 225 1.1
2020-Jan-27 10:09 225 1.1
2020-Jan-27 10:04 225 1.1
2020-Jan-27 09:59 225 1.1
2020-Jan-27 09:54 225 1.1
2020-Jan-27 09:49 225 1.1
2020-Jan-27 09:44 225 1.1
2020-Jan-27 09:39 225 1.1
2020-Jan-27 09:34 225 1.1
2020-Jan-27 09:29 225 1.7
2020-Jan-27 09:24 225 1.7
2020-Jan-27 09:19 225 1.7
2020-Jan-27 09:14 225 1.7
2020-Jan-27 09:09 158 1.7
2020-Jan-27 09:04 180 1.7
2020-Jan-27 08:59 180 2.2
2020-Jan-27 08:54 180 2.2
2020-Jan-27 08:49 180 2.2
2020-Jan-27 08:44 180 2.2
2020-Jan-27 08:39 180 2.2
2020-Jan-27 08:34 180 2.2
2020-Jan-27 08:29 180 2.2
2020-Jan-27 08:24 202 2.2
2020-Jan-27 08:19 204 0 gusting 1 2.2
2020-Jan-27 08:14 225 2.8
2020-Jan-27 08:09 202 2.8
2020-Jan-27 08:04 203 0 gusting 1 2.8
2020-Jan-27 07:59 202 2.8
2020-Jan-27 07:54 225 0 gusting 1 2.8
2020-Jan-27 07:49 202 2.8
2020-Jan-27 07:44 180 2.8
2020-Jan-27 07:39 202 3.3
2020-Jan-27 07:34 183 3.3
2020-Jan-27 07:29 194 0 gusting 2 3.3
2020-Jan-27 07:24 180 0 gusting 2 3.3
2020-Jan-27 07:19 202 0 gusting 2 3.3
2020-Jan-27 07:14 205 0 gusting 4 3.3
2020-Jan-27 07:09 202 3.3
2020-Jan-27 07:04 202 3.3
2020-Jan-27 06:59 202 3.3
2020-Jan-27 06:54 202 0 gusting 0 3.3
2020-Jan-27 06:49 202 0 gusting 1 3.3
2020-Jan-27 06:44 225 0 gusting 1 3.3
2020-Jan-27 06:39 225 3.3
2020-Jan-27 06:34 206 0 gusting 2 3.3
2020-Jan-27 06:29 195 0 gusting 2 3.3
2020-Jan-27 06:24 217 1 gusting 4 3.3
2020-Jan-27 06:19 018 -0.0